Stanleyville, North Carolina
Current Conditions -  °F | °C
As of 6:54 PM on Saturday 20 Dec 2014 (Local Time) from KINT Reporting Station
Overcast Overcast  
Wind Chill: 38°   Ceiling: 6500
Heat Index: 38°   Visibility: 10mi
Dew Point: 30°   Wind: 3mph
Humidity: 73%   Direction: 80°E
Pressure: 30.24"   Gusts: NA
Location:  36.2334°N, 80.2983°W
Report Text: KINT 202354Z 08003KT 10SM OVC065 03/M01 A3024 RMK AO2 SLP246 T00331011 10050 20028 53007
Loading
Personal Weather Stations






























Interactive Weather Map New forecast layout! Learn more

10-Day Weather Forecast

Advertisements
Track Severe Weather on mobile